Pequot Lakes, MN

5:56 PM CDT on May 06, 2015 (GMT -0500)
Aitkin Municipal / Steve Kurtz Field | | Change Station
CLOSE
Current Station
Airport
Location: Aitkin,
Elevation: 1204 ft
Nearby Weather Stations

Elev 1204 ft 46.55 °N, 93.68 °W | Updated 23 minutes ago

Overcast
Overcast
73 °F
Feels Like 73 °F
N
10
Wind Variable Wind from East
Gusts 17 mph

Today
High -- | Low -- °F
--% Chance of Precip.
Yesterday
High -- | Low -- °F
Precip. -- in
5:55 AM 8:33 PM
Waning Gibbous, 92% visible
Pressure 29.84 in
Visibility 10.0 miles
Clouds Clear
Dew Point 55 °F
Humidity 53%
Rainfall 0.05 in
Snow Depth Not available.
UV 3 out of 12
Pollen 5.20 out of 12
Air Quality Not available.
Flu Activity Sporadic
METAR KAIT 062233Z AUTO 10009G15KT 10SM CLR 23/13 A2984 RMK AO2

More Conditions Fewer Conditions

Pressure 29.84 in
Visibility 10.0 miles
Clouds Clear
Dew Point 55 °F
Humidity 53%
Rainfall 0.05 in
Snow Depth Not available.
UV 3 out of 12
Pollen 5.20 out of 12
Air Quality Not available.
Flu Activity Sporadic
METAR KAIT 062233Z AUTO 10009G15KT 10SM CLR 23/13 A2984 RMK AO2

More Conditions Fewer Conditions

10-Day Weather Forecast

Almanac

Astronomy

May. 06, 2015 Rise Set
Actual Time
Civil Twilight
Nautical Twilight
Astronomical Twilight
Moon
Length of Visible Light
Length of Day
Tomorrow will be .
, % of the Moon is Illuminated

Today's Extremes

State Highs State Lows

Community

WunderPhotos

Upload Photos

1,819,034 photos uploaded!

WunderBlogs® & News

Nearby

Air Quality

  Air Quality AQ Index Pollutant
Not available.

Snow Depth

Station Depth Elevation

Earthquake Activity

City Distance Mag. Time & Date
Minimum magnitude displayed is 2.5.

Coastal Water Temperatures

Place Temperature

Stations

Nearby Weather Stations

Station Location Temp. Windchill Dew Point Humidity Wind Precip. Elev Updated Type